Time;durP1;ratioP1;P1;durP2;ratioP2;P2;SDS_P1;SDS_P2;PMS_P1;PMS_P2;Temp;Humidity;BMP_temperature;BMP_pressure;BME280_temperature;BME280_humidity;BME280_pressure;Samples;Min_cycle;Max_cycle;Signal;HPM_P1;HPM_P2
2021/07/22 00:00:27;;;;;;;15.63;12.40;;;;;;;;;;5054843;28;20418;-79
2021/07/22 00:02:53;;;;;;;16.67;12.30;;;;;;;;;;5054494;28;20418;-78
2021/07/22 00:05:19;;;;;;;19.40;13.60;;;;;;;;;;5053110;28;20427;-77
2021/07/22 00:07:46;;;;;;;17.20;13.00;;;;;;;;;;5054628;28;20379;-77
2021/07/22 00:10:12;;;;;;;17.87;12.70;;;;;;;;;;5054438;28;20419;-78
2021/07/22 00:12:38;;;;;;;16.23;12.50;;;;;;;;;;5054207;28;20387;-78
2021/07/22 00:15:05;;;;;;;17.40;13.73;;;;;;;;;;5053906;28;20915;-79
2021/07/22 00:17:32;;;;;;;17.80;13.10;;;;;;;;;;5053088;28;20968;-78
2021/07/22 00:20:00;;;;;;;18.60;13.57;;;;;;;;;;5054283;28;20391;-77
2021/07/22 00:22:26;;;;;;;16.30;12.50;;;;;;;;;;5054166;28;20477;-77
2021/07/22 00:24:52;;;;;;;16.67;12.63;;;;;;;;;;5053450;28;20436;-78
2021/07/22 00:27:18;;;;;;;16.73;12.70;;;;;;;;;;5053980;28;20387;-77
2021/07/22 00:29:44;;;;;;;18.23;13.63;;;;;;;;;;5053710;28;20879;-78
2021/07/22 00:32:10;;;;;;;18.20;12.90;;;;;;;;;;5053959;28;20389;-78
2021/07/22 00:34:37;;;;;;;18.40;14.97;;;;;;;;;;5053485;28;20402;-79
2021/07/22 00:37:03;;;;;;;18.00;12.87;;;;;;;;;;5053739;28;20448;-77
2021/07/22 00:39:29;;;;;;;16.73;12.37;;;;;;;;;;5052507;28;20394;-79
2021/07/22 00:41:55;;;;;;;15.10;12.10;;;;;;;;;;5053894;28;20799;-79
2021/07/22 00:44:21;;;;;;;17.57;12.20;;;;;;;;;;5053649;28;20427;-78
2021/07/22 00:46:47;;;;;;;18.27;12.50;;;;;;;;;;5053801;28;20918;-78
2021/07/22 00:49:15;;;;;;;13.13;11.73;;;;;;;;;;5053798;28;20387;-77
2021/07/22 00:51:41;;;;;;;18.17;11.90;;;;;;;;;;5053979;28;20379;-78
2021/07/22 00:54:07;;;;;;;14.60;12.60;;;;;;;;;;5053276;28;20412;-77
2021/07/22 00:56:34;;;;;;;14.30;12.10;;;;;;;;;;5053457;28;20382;-78
2021/07/22 00:59:01;;;;;;;14.73;11.80;;;;;;;;;;5053636;28;20390;-79
2021/07/22 01:01:27;;;;;;;15.53;12.50;;;;;;;;;;5052325;28;20420;-78
2021/07/22 01:03:53;;;;;;;15.20;12.10;;;;;;;;;;5053179;28;20444;-79
2021/07/22 01:06:19;;;;;;;14.50;12.47;;;;;;;;;;5053230;28;20928;-77
2021/07/22 01:08:45;;;;;;;15.67;12.03;;;;;;;;;;5053655;28;20423;-76
2021/07/22 01:11:11;;;;;;;17.17;11.47;;;;;;;;;;5053911;28;20391;-78
2021/07/22 01:13:37;;;;;;;12.47;10.40;;;;;;;;;;5053468;28;20474;-77
2021/07/22 01:16:03;;;;;;;14.53;11.47;;;;;;;;;;5054704;28;20976;-76
2021/07/22 01:18:29;;;;;;;13.70;10.50;;;;;;;;;;5058187;28;20446;-77
2021/07/22 01:20:55;;;;;;;13.20;10.50;;;;;;;;;;5053344;28;20413;-78
2021/07/22 01:23:21;;;;;;;20.83;11.93;;;;;;;;;;5052885;28;20371;-76
2021/07/22 01:25:48;;;;;;;16.57;13.10;;;;;;;;;;5053047;28;20883;-76
2021/07/22 01:28:14;;;;;;;14.60;12.07;;;;;;;;;;5053194;28;20403;-76
2021/07/22 01:30:40;;;;;;;16.17;12.93;;;;;;;;;;5053143;28;20546;-76
2021/07/22 01:33:06;;;;;;;19.17;11.87;;;;;;;;;;5051602;28;20968;-77
2021/07/22 01:35:32;;;;;;;17.70;13.40;;;;;;;;;;5052736;28;20447;-76
2021/07/22 01:37:58;;;;;;;16.20;12.93;;;;;;;;;;5053210;28;20499;-77
2021/07/22 01:40:24;;;;;;;17.67;12.27;;;;;;;;;;5053146;28;20473;-76
2021/07/22 01:42:50;;;;;;;13.37;11.10;;;;;;;;;;5052925;28;20407;-76
2021/07/22 01:45:16;;;;;;;14.20;11.40;;;;;;;;;;5051961;28;20402;-77
2021/07/22 01:47:42;;;;;;;17.03;11.50;;;;;;;;;;5051545;28;20415;-76
2021/07/22 01:50:09;;;;;;;13.00;10.67;;;;;;;;;;5053101;28;20529;-76
2021/07/22 01:52:35;;;;;;;14.27;12.30;;;;;;;;;;5052851;28;20901;-77
2021/07/22 01:55:01;;;;;;;15.87;12.20;;;;;;;;;;5052696;28;20442;-77
2021/07/22 01:57:27;;;;;;;15.93;11.27;;;;;;;;;;5052803;28;20825;-76
2021/07/22 01:59:53;;;;;;;14.10;11.40;;;;;;;;;;5052841;28;20407;-77
2021/07/22 02:02:19;;;;;;;16.40;11.10;;;;;;;;;;5051603;28;20506;-76
2021/07/22 02:04:45;;;;;;;14.57;11.17;;;;;;;;;;5052192;28;20459;-76
2021/07/22 02:07:11;;;;;;;14.50;11.90;;;;;;;;;;5052871;28;20390;-76
2021/07/22 02:09:37;;;;;;;14.27;11.90;;;;;;;;;;5052705;28;20419;-76
2021/07/22 02:12:04;;;;;;;13.67;11.70;;;;;;;;;;5052554;28;20415;-77
2021/07/22 02:14:30;;;;;;;14.90;10.83;;;;;;;;;;5052381;28;20438;-77
2021/07/22 02:16:56;;;;;;;14.67;11.67;;;;;;;;;;5052988;28;20434;-77
2021/07/22 02:19:22;;;;;;;13.93;11.43;;;;;;;;;;5056526;28;20411;-76
2021/07/22 02:21:48;;;;;;;18.57;12.03;;;;;;;;;;5056442;28;20856;-77
2021/07/22 02:24:14;;;;;;;17.50;12.93;;;;;;;;;;5056145;28;20424;-77
2021/07/22 02:26:40;;;;;;;16.80;12.70;;;;;;;;;;5055090;28;20932;-76
2021/07/22 02:29:07;;;;;;;16.17;11.57;;;;;;;;;;5056501;28;20752;-77
2021/07/22 02:31:34;;;;;;;17.50;11.90;;;;;;;;;;5056415;28;20416;-78
2021/07/22 02:33:59;;;;;;;16.30;12.63;;;;;;;;;;5055687;28;20507;-75
2021/07/22 02:36:25;;;;;;;15.40;11.10;;;;;;;;;;5056269;28;20840;-77
2021/07/22 02:38:51;;;;;;;14.90;11.90;;;;;;;;;;5056190;28;20449;-76
2021/07/22 02:41:17;;;;;;;15.60;12.80;;;;;;;;;;5056383;28;20557;-77
2021/07/22 02:43:43;;;;;;;18.13;12.80;;;;;;;;;;5054487;28;20416;-77
2021/07/22 02:46:10;;;;;;;16.37;12.43;;;;;;;;;;5055889;28;20407;-77
2021/07/22 02:48:36;;;;;;;15.70;12.07;;;;;;;;;;5056527;28;20416;-77
2021/07/22 02:51:03;;;;;;;16.70;12.37;;;;;;;;;;5056119;28;20768;-77
2021/07/22 02:53:29;;;;;;;17.60;12.37;;;;;;;;;;5055629;28;20444;-77
2021/07/22 02:55:59;;;;;;;16.53;13.03;;;;;;;;;;5054590;28;20444;-77
2021/07/22 02:58:25;;;;;;;18.70;13.87;;;;;;;;;;5056244;28;20466;-77
2021/07/22 03:00:51;;;;;;;17.20;13.87;;;;;;;;;;5055904;28;20793;-77
2021/07/22 03:03:17;;;;;;;15.17;12.97;;;;;;;;;;5055351;28;20379;-77
2021/07/22 03:05:43;;;;;;;24.43;14.93;;;;;;;;;;5055795;28;20480;-77
2021/07/22 03:08:09;;;;;;;21.37;14.47;;;;;;;;;;5055597;28;20419;-78
2021/07/22 03:10:35;;;;;;;20.40;14.70;;;;;;;;;;5055612;28;20408;-77
2021/07/22 03:13:01;;;;;;;21.23;14.07;;;;;;;;;;5055249;28;20494;-77
2021/07/22 03:15:28;;;;;;;20.87;15.87;;;;;;;;;;5054121;28;20467;-75
2021/07/22 03:17:54;;;;;;;19.73;15.23;;;;;;;;;;5055402;28;20487;-76
2021/07/22 03:20:20;;;;;;;26.10;16.07;;;;;;;;;;5055326;28;20410;-77
2021/07/22 03:22:46;;;;;;;19.90;14.60;;;;;;;;;;5054944;28;20410;-77
2021/07/22 03:25:12;;;;;;;19.80;15.80;;;;;;;;;;5055111;28;20398;-77
2021/07/22 03:27:38;;;;;;;18.33;13.63;;;;;;;;;;5055007;28;20419;-77
2021/07/22 03:30:04;;;;;;;18.23;13.57;;;;;;;;;;5055170;28;20416;-77
2021/07/22 03:32:30;;;;;;;20.53;14.57;;;;;;;;;;5054984;28;20448;-77
2021/07/22 03:34:56;;;;;;;20.23;14.73;;;;;;;;;;5054652;28;20456;-76
2021/07/22 03:37:22;;;;;;;15.90;13.10;;;;;;;;;;5054975;28;20570;-76
2021/07/22 03:39:48;;;;;;;16.70;13.30;;;;;;;;;;5054954;28;20496;-76
2021/07/22 03:42:14;;;;;;;18.40;13.90;;;;;;;;;;5055017;28;20836;-77
2021/07/22 03:44:40;;;;;;;18.33;13.53;;;;;;;;;;5053251;28;20523;-76
2021/07/22 03:47:06;;;;;;;18.83;12.93;;;;;;;;;;5054965;28;20453;-77
2021/07/22 03:49:34;;;;;;;17.37;12.87;;;;;;;;;;5055148;28;20387;-77
2021/07/22 03:52:00;;;;;;;19.57;13.67;;;;;;;;;;5055050;28;20448;-77
2021/07/22 03:54:26;;;;;;;25.37;15.73;;;;;;;;;;5054352;28;20977;-78
2021/07/22 03:56:51;;;;;;;23.37;16.43;;;;;;;;;;5054815;28;20470;-76
2021/07/22 03:59:18;;;;;;;23.43;16.80;;;;;;;;;;5054731;28;20405;-76
2021/07/22 04:01:44;;;;;;;28.00;17.40;;;;;;;;;;5054678;28;20390;-77
2021/07/22 04:04:10;;;;;;;22.73;16.50;;;;;;;;;;5054032;28;20379;-76
2021/07/22 04:06:37;;;;;;;25.27;17.50;;;;;;;;;;5054450;28;20393;-78
2021/07/22 04:09:03;;;;;;;25.30;18.10;;;;;;;;;;5054843;28;20387;-76
2021/07/22 04:11:29;;;;;;;27.37;17.57;;;;;;;;;;5053368;28;20402;-77
2021/07/22 04:13:55;;;;;;;26.27;19.00;;;;;;;;;;5053992;28;20722;-78
2021/07/22 04:16:21;;;;;;;24.53;18.67;;;;;;;;;;5054470;28;20447;-77
2021/07/22 04:18:47;;;;;;;25.83;17.37;;;;;;;;;;5054286;28;20525;-76
2021/07/22 04:21:13;;;;;;;30.67;19.63;;;;;;;;;;5054246;28;20471;-78
2021/07/22 04:23:39;;;;;;;25.77;18.13;;;;;;;;;;5053881;28;20928;-76
2021/07/22 04:26:05;;;;;;;26.43;18.90;;;;;;;;;;5054223;28;20428;-77
2021/07/22 04:28:31;;;;;;;29.10;18.57;;;;;;;;;;5054023;28;20917;-76
2021/07/22 04:30:57;;;;;;;29.63;20.70;;;;;;;;;;5054153;28;20410;-77
2021/07/22 04:33:23;;;;;;;27.27;19.00;;;;;;;;;;5053787;28;20420;-76
2021/07/22 04:35:54;;;;;;;27.63;20.00;;;;;;;;;;5053876;28;20426;-76
2021/07/22 04:38:21;;;;;;;28.60;20.13;;;;;;;;;;5054100;28;20476;-75
2021/07/22 04:40:46;;;;;;;28.73;19.63;;;;;;;;;;5056129;28;20415;-78
2021/07/22 04:43:12;;;;;;;26.90;19.60;;;;;;;;;;5054732;28;20801;-76
2021/07/22 04:45:38;;;;;;;21.40;18.10;;;;;;;;;;5053787;28;20482;-75
2021/07/22 04:48:05;;;;;;;24.73;18.50;;;;;;;;;;5053851;28;20399;-76
2021/07/22 04:50:31;;;;;;;24.67;18.50;;;;;;;;;;5053772;28;20419;-77
2021/07/22 04:52:57;;;;;;;28.20;20.77;;;;;;;;;;5053255;28;20474;-77
2021/07/22 04:55:23;;;;;;;25.67;20.50;;;;;;;;;;5053688;28;20438;-76
2021/07/22 04:57:57;;;;;;;30.63;21.10;;;;;;;;;;5053618;28;20792;-76
2021/07/22 05:00:22;;;;;;;27.47;19.83;;;;;;;;;;5053821;28;20408;-77
2021/07/22 05:02:48;;;;;;;27.57;19.00;;;;;;;;;;5053316;28;20390;-76
2021/07/22 05:05:14;;;;;;;27.57;20.07;;;;;;;;;;5053292;28;20422;-77
2021/07/22 05:07:40;;;;;;;23.20;18.03;;;;;;;;;;5053562;28;20936;-77
2021/07/22 05:10:07;;;;;;;27.77;19.33;;;;;;;;;;5054506;28;20387;-77
2021/07/22 05:12:33;;;;;;;25.67;18.63;;;;;;;;;;5053930;28;20411;-76
2021/07/22 05:14:59;;;;;;;28.43;18.40;;;;;;;;;;5053001;28;20431;-76
2021/07/22 05:17:25;;;;;;;28.10;19.73;;;;;;;;;;5053173;28;20555;-78
2021/07/22 05:19:51;;;;;;;28.53;21.37;;;;;;;;;;5053520;28;20386;-78
2021/07/22 05:22:21;;;;;;;29.53;20.73;;;;;;;;;;5053391;28;20545;-77
2021/07/22 05:24:47;;;;;;;32.23;22.00;;;;;;;;;;5052977;28;20424;-77
2021/07/22 05:27:16;;;;;;;27.43;21.17;;;;;;;;;;5053209;28;20851;-79
2021/07/22 05:29:42;;;;;;;31.23;20.50;;;;;;;;;;5053161;28;20394;-77
2021/07/22 05:32:08;;;;;;;29.53;21.63;;;;;;;;;;5051891;28;20416;-77
2021/07/22 05:34:34;;;;;;;26.97;21.47;;;;;;;;;;5052659;28;20441;-77
2021/07/22 05:37:00;;;;;;;35.43;20.93;;;;;;;;;;5052891;28;20496;-77
2021/07/22 05:39:26;;;;;;;25.10;19.23;;;;;;;;;;5051597;28;20428;-77
2021/07/22 05:41:52;;;;;;;28.57;19.20;;;;;;;;;;5053278;28;20422;-77
2021/07/22 05:44:18;;;;;;;24.43;18.10;;;;;;;;;;5052647;28;20490;-78
2021/07/22 05:46:44;;;;;;;25.40;19.10;;;;;;;;;;5053050;28;20412;-77
2021/07/22 05:49:10;;;;;;;25.50;18.53;;;;;;;;;;5053173;28;20495;-76
2021/07/22 05:51:36;;;;;;;25.27;20.07;;;;;;;;;;5054910;28;20412;-80
2021/07/22 05:54:02;;;;;;;25.13;18.40;;;;;;;;;;5056837;28;20473;-78
2021/07/22 05:56:28;;;;;;;27.90;18.90;;;;;;;;;;5057442;28;20864;-78
2021/07/22 05:58:54;;;;;;;25.80;18.40;;;;;;;;;;5057079;28;20471;-77
2021/07/22 06:01:21;;;;;;;25.20;17.97;;;;;;;;;;5056962;28;20494;-78
2021/07/22 06:03:47;;;;;;;22.30;18.20;;;;;;;;;;5054984;28;20391;-77
2021/07/22 06:06:12;;;;;;;24.40;17.53;;;;;;;;;;5055534;28;20462;-77
2021/07/22 06:08:38;;;;;;;23.47;17.60;;;;;;;;;;5056842;28;20514;-78
2021/07/22 06:11:06;;;;;;;22.30;17.80;;;;;;;;;;5055597;28;20408;-77
2021/07/22 06:13:32;;;;;;;22.03;18.17;;;;;;;;;;5056239;28;20398;-77
2021/07/22 06:15:58;;;;;;;24.90;18.93;;;;;;;;;;5056869;28;20766;-77
2021/07/22 06:18:24;;;;;;;23.63;18.63;;;;;;;;;;5055362;28;20567;-78
2021/07/22 06:20:50;;;;;;;25.27;18.13;;;;;;;;;;5056542;28;20410;-77
2021/07/22 06:23:16;;;;;;;20.83;17.63;;;;;;;;;;5056373;28;20412;-77
2021/07/22 06:25:42;;;;;;;23.30;18.60;;;;;;;;;;5056282;28;20408;-77
2021/07/22 06:28:08;;;;;;;23.17;17.67;;;;;;;;;;5055285;28;20502;-77
2021/07/22 06:30:34;;;;;;;27.30;17.67;;;;;;;;;;5056513;28;20387;-78
2021/07/22 06:33:00;;;;;;;22.40;18.20;;;;;;;;;;5056092;28;20382;-78
2021/07/22 06:35:26;;;;;;;27.63;18.27;;;;;;;;;;5055020;28;20409;-77
2021/07/22 06:37:52;;;;;;;26.00;18.33;;;;;;;;;;5055669;28;21023;-79
2021/07/22 06:40:18;;;;;;;22.77;16.50;;;;;;;;;;5053592;28;20469;-79
2021/07/22 06:42:44;;;;;;;26.70;17.40;;;;;;;;;;5055936;28;20471;-78
2021/07/22 06:45:10;;;;;;;21.87;17.50;;;;;;;;;;5056227;28;20939;-78
2021/07/22 06:47:39;;;;;;;22.23;17.47;;;;;;;;;;5056266;28;20412;-79
2021/07/22 06:50:09;;;;;;;20.37;15.43;;;;;;;;;;5056145;28;20390;-78
2021/07/22 06:52:37;;;;;;;24.03;16.63;;;;;;;;;;5056238;28;20841;-77
2021/07/22 06:55:03;;;;;;;21.60;17.50;;;;;;;;;;5055899;28;20426;-79
2021/07/22 06:57:29;;;;;;;25.90;17.83;;;;;;;;;;5055911;28;20459;-78
2021/07/22 06:59:55;;;;;;;22.00;17.00;;;;;;;;;;5055749;28;20491;-77
2021/07/22 07:02:21;;;;;;;19.40;16.60;;;;;;;;;;5055676;28;20489;-78
2021/07/22 07:04:47;;;;;;;18.77;15.50;;;;;;;;;;5054773;28;20451;-76
2021/07/22 07:07:15;;;;;;;24.57;16.10;;;;;;;;;;5055746;28;20791;-79
2021/07/22 07:09:42;;;;;;;20.90;15.50;;;;;;;;;;5055898;28;20413;-78
2021/07/22 07:12:08;;;;;;;24.60;16.10;;;;;;;;;;5055561;28;20423;-77
2021/07/22 07:14:34;;;;;;;17.93;15.20;;;;;;;;;;5055472;28;21067;-77
2021/07/22 07:17:00;;;;;;;20.37;14.07;;;;;;;;;;5055507;28;20434;-78
2021/07/22 07:19:26;;;;;;;19.63;16.73;;;;;;;;;;5055565;28;20430;-77
2021/07/22 07:21:52;;;;;;;20.10;15.50;;;;;;;;;;5055525;28;20458;-77
2021/07/22 07:24:18;;;;;;;22.77;14.20;;;;;;;;;;5055138;28;20467;-77
2021/07/22 07:26:44;;;;;;;20.43;16.00;;;;;;;;;;5056042;28;20412;-76
2021/07/22 07:29:10;;;;;;;21.60;14.50;;;;;;;;;;5056388;28;20465;-75
2021/07/22 07:31:38;;;;;;;20.13;14.87;;;;;;;;;;5055642;28;20412;-77
2021/07/22 07:34:04;;;;;;;17.87;14.57;;;;;;;;;;5054487;28;20963;-77
2021/07/22 07:36:30;;;;;;;17.90;14.10;;;;;;;;;;5055486;28;20401;-77
2021/07/22 07:38:56;;;;;;;15.37;13.70;;;;;;;;;;5055035;28;20468;-77
2021/07/22 07:41:22;;;;;;;18.97;13.80;;;;;;;;;;5054984;28;20506;-76
2021/07/22 07:43:48;;;;;;;18.30;13.00;;;;;;;;;;5054678;28;20927;-76
2021/07/22 07:46:14;;;;;;;19.90;14.37;;;;;;;;;;5054606;28;20431;-76
2021/07/22 07:48:40;;;;;;;21.50;13.60;;;;;;;;;;5054855;28;20499;-78
2021/07/22 07:51:08;;;;;;;18.30;13.87;;;;;;;;;;5054699;28;20423;-75
2021/07/22 07:53:34;;;;;;;24.37;14.30;;;;;;;;;;5054435;28;20415;-76
2021/07/22 07:56:00;;;;;;;19.80;13.60;;;;;;;;;;5054704;28;20440;-77
2021/07/22 07:58:26;;;;;;;17.33;13.23;;;;;;;;;;5054823;28;20468;-79
2021/07/22 08:00:52;;;;;;;23.00;16.20;;;;;;;;;;5054995;28;20496;-78
2021/07/22 08:03:19;;;;;;;17.97;14.73;;;;;;;;;;5037172;28;20893;-78
2021/07/22 08:05:45;;;;;;;19.33;13.87;;;;;;;;;;5053529;28;20459;-77
2021/07/22 08:08:11;;;;;;;17.80;13.30;;;;;;;;;;5057033;28;20416;-78
2021/07/22 08:10:40;;;;;;;22.00;13.90;;;;;;;;;;5058399;28;20427;-78
2021/07/22 08:13:07;;;;;;;18.60;14.00;;;;;;;;;;5052791;28;20420;-79
2021/07/22 08:15:33;;;;;;;19.03;14.83;;;;;;;;;;5053663;28;20447;-78
2021/07/22 08:17:59;;;;;;;18.40;14.97;;;;;;;;;;5055024;28;20948;-78
2021/07/22 08:20:25;;;;;;;16.50;13.87;;;;;;;;;;5056642;28;20404;-77
2021/07/22 08:22:51;;;;;;;22.07;15.00;;;;;;;;;;5056373;28;20404;-77
2021/07/22 08:25:17;;;;;;;16.73;13.30;;;;;;;;;;5054833;28;20506;-77
2021/07/22 08:27:44;;;;;;;20.53;15.37;;;;;;;;;;5054640;28;20785;-77
2021/07/22 08:30:10;;;;;;;21.90;15.27;;;;;;;;;;5057308;28;20423;-77
2021/07/22 08:32:36;;;;;;;16.80;14.00;;;;;;;;;;5056592;28;20454;-77
2021/07/22 08:35:02;;;;;;;17.80;14.80;;;;;;;;;;5057848;28;20440;-78
2021/07/22 08:37:28;;;;;;;24.40;15.90;;;;;;;;;;5057851;28;20509;-78
2021/07/22 08:40:00;;;;;;;18.00;14.57;;;;;;;;;;5057857;28;20416;-79
2021/07/22 08:42:27;;;;;;;17.97;14.37;;;;;;;;;;5053995;28;20408;-77
2021/07/22 08:44:53;;;;;;;16.27;12.93;;;;;;;;;;5053528;28;20511;-76
2021/07/22 08:47:19;;;;;;;15.90;12.67;;;;;;;;;;5054501;28;20411;-77
2021/07/22 08:49:45;;;;;;;18.10;12.43;;;;;;;;;;5054016;28;20404;-77
2021/07/22 08:52:11;;;;;;;14.37;11.90;;;;;;;;;;5053861;28;20462;-77
2021/07/22 08:54:38;;;;;;;16.23;12.43;;;;;;;;;;5053457;28;20442;-80
2021/07/22 08:57:09;;;;;;;16.23;13.13;;;;;;;;;;5053719;28;20463;-78
2021/07/22 08:59:35;;;;;;;14.33;12.10;;;;;;;;;;5053745;28;20408;-77
2021/07/22 09:02:01;;;;;;;15.97;13.27;;;;;;;;;;5053661;28;20832;-77
2021/07/22 09:04:31;;;;;;;15.23;13.13;;;;;;;;;;5052950;28;20530;-78
2021/07/22 09:06:57;;;;;;;15.03;12.57;;;;;;;;;;5053581;28;20782;-78
2021/07/22 09:09:23;;;;;;;13.90;11.87;;;;;;;;;;5054074;28;20414;-77
2021/07/22 09:11:53;;;;;;;18.73;13.27;;;;;;;;;;5053710;28;20428;-77
2021/07/22 09:14:19;;;;;;;14.40;12.20;;;;;;;;;;5053183;28;20986;-77
2021/07/22 09:16:45;;;;;;;11.67;9.70;;;;;;;;;;5053456;28;20535;-78
2021/07/22 09:19:32;;;;;;;13.80;10.10;;;;;;;;;;5053324;28;20484;-78
2021/07/22 09:21:58;;;;;;;11.40;8.93;;;;;;;;;;5053309;28;20415;-78
2021/07/22 09:24:24;;;;;;;12.33;10.30;;;;;;;;;;5053001;28;20428;-77
2021/07/22 09:26:53;;;;;;;14.00;10.37;;;;;;;;;;5053359;28;20400;-77
2021/07/22 09:29:19;;;;;;;12.67;9.77;;;;;;;;;;5053228;28;20420;-77
2021/07/22 09:31:48;;;;;;;10.60;9.50;;;;;;;;;;5053406;28;20881;-77
2021/07/22 09:34:15;;;;;;;12.70;10.30;;;;;;;;;;5051823;28;20974;-77
2021/07/22 09:36:41;;;;;;;12.13;9.67;;;;;;;;;;5058306;28;20760;-77
2021/07/22 09:39:21;;;;;;;14.63;9.40;;;;;;;;;;5053119;28;20468;-77
2021/07/22 09:42:00;;;;;;;12.33;8.83;;;;;;;;;;5053235;28;20408;-78
2021/07/22 09:44:36;;;;;;;10.73;8.50;;;;;;;;;;5052549;28;20439;-78
2021/07/22 09:47:03;;;;;;;10.83;8.67;;;;;;;;;;5052970;28;20493;-78
2021/07/22 09:49:35;;;;;;;14.60;10.37;;;;;;;;;;5052910;28;20412;-77
2021/07/22 09:52:02;;;;;;;12.70;9.07;;;;;;;;;;5053014;28;20408;-77
2021/07/22 09:54:37;;;;;;;13.93;10.00;;;;;;;;;;5052624;28;20526;-77
2021/07/22 09:57:04;;;;;;;12.70;8.83;;;;;;;;;;5052852;28;20461;-78
2021/07/22 09:59:30;;;;;;;10.73;9.00;;;;;;;;;;5053198;28;20411;-77
2021/07/22 10:02:02;;;;;;;13.40;10.43;;;;;;;;;;5052960;28;20740;-77
2021/07/22 10:04:30;;;;;;;10.90;8.90;;;;;;;;;;5052315;28;20478;-79
2021/07/22 10:06:59;;;;;;;11.30;9.50;;;;;;;;;;5058152;28;20404;-79
2021/07/22 10:09:26;;;;;;;10.57;9.43;;;;;;;;;;5058216;28;20441;-77
2021/07/22 10:11:52;;;;;;;15.10;9.73;;;;;;;;;;5055710;28;20438;-77
2021/07/22 10:14:19;;;;;;;16.43;11.63;;;;;;;;;;5052970;28;20940;-78
2021/07/22 10:16:48;;;;;;;9.67;8.50;;;;;;;;;;5053485;28;20714;-79
2021/07/22 10:19:14;;;;;;;11.50;10.30;;;;;;;;;;5053285;28;20431;-78
2021/07/22 10:21:40;;;;;;;12.70;10.23;;;;;;;;;;5051576;28;20771;-78
2021/07/22 10:24:09;;;;;;;13.67;10.87;;;;;;;;;;5052838;28;20411;-77
2021/07/22 10:26:40;;;;;;;12.13;10.10;;;;;;;;;;5053275;28;20896;-78
2021/07/22 10:29:06;;;;;;;12.37;10.10;;;;;;;;;;5053007;28;20503;-78
2021/07/22 10:31:40;;;;;;;11.40;10.20;;;;;;;;;;5053109;28;20404;-78
2021/07/22 10:34:07;;;;;;;12.10;10.80;;;;;;;;;;5052434;28;20875;-77
2021/07/22 10:36:33;;;;;;;9.77;8.77;;;;;;;;;;5052909;28;20400;-77
2021/07/22 10:38:59;;;;;;;12.17;10.00;;;;;;;;;;5054773;28;20892;-78
2021/07/22 10:41:35;;;;;;;10.90;9.80;;;;;;;;;;5056161;28;20494;-76
2021/07/22 10:44:01;;;;;;;11.20;8.80;;;;;;;;;;5055731;28;20407;-75
2021/07/22 10:46:47;;;;;;;12.40;10.23;;;;;;;;;;5056066;28;20400;-76
2021/07/22 10:49:16;;;;;;;11.47;10.30;;;;;;;;;;5056150;28;20457;-78
2021/07/22 10:51:42;;;;;;;16.77;11.20;;;;;;;;;;5055899;28;20781;-77
2021/07/22 10:54:08;;;;;;;13.33;9.80;;;;;;;;;;5055748;28;20507;-77
2021/07/22 10:56:43;;;;;;;15.00;10.93;;;;;;;;;;5056012;28;20536;-77
2021/07/22 10:59:09;;;;;;;13.80;10.03;;;;;;;;;;5056085;28;20463;-77
2021/07/22 11:01:41;;;;;;;12.20;10.27;;;;;;;;;;5056022;28;20412;-77
2021/07/22 11:04:07;;;;;;;16.00;10.60;;;;;;;;;;5055630;28;20451;-77
2021/07/22 11:06:53;;;;;;;15.40;11.27;;;;;;;;;;5056107;28;20427;-76
2021/07/22 11:09:19;;;;;;;15.20;13.00;;;;;;;;;;5055741;28;20423;-79
2021/07/22 11:11:48;;;;;;;16.23;12.30;;;;;;;;;;5055702;28;20420;-76
2021/07/22 11:14:33;;;;;;;26.80;11.77;;;;;;;;;;5055206;28;20463;-77
2021/07/22 11:16:59;;;;;;;12.27;9.60;;;;;;;;;;5055474;28;20416;-77
2021/07/22 11:19:27;;;;;;;13.40;10.30;;;;;;;;;;5055752;28;20869;-78
2021/07/22 11:21:53;;;;;;;13.87;11.20;;;;;;;;;;5055701;28;20412;-78
2021/07/22 11:24:27;;;;;;;14.20;10.40;;;;;;;;;;5055877;28;20434;-78
2021/07/22 11:26:55;;;;;;;15.63;12.10;;;;;;;;;;5055631;28;20465;-78
2021/07/22 11:29:21;;;;;;;19.23;12.37;;;;;;;;;;5055784;28;20404;-78
2021/07/22 11:31:48;;;;;;;12.30;10.83;;;;;;;;;;5055507;28;20415;-77
2021/07/22 11:34:15;;;;;;;12.43;9.70;;;;;;;;;;5054958;28;20427;-78
2021/07/22 11:36:41;;;;;;;13.30;11.20;;;;;;;;;;5055621;28;20413;-78
2021/07/22 11:39:08;;;;;;;15.10;11.03;;;;;;;;;;5055421;28;20468;-78
2021/07/22 11:41:34;;;;;;;13.53;11.23;;;;;;;;;;5055734;28;20412;-78
2021/07/22 11:44:01;;;;;;;12.20;10.80;;;;;;;;;;5055322;28;20411;-77
2021/07/22 11:46:35;;;;;;;12.33;11.10;;;;;;;;;;5055108;28;20483;-76
2021/07/22 11:49:05;;;;;;;13.03;10.77;;;;;;;;;;5055093;28;20412;-77
2021/07/22 11:51:31;;;;;;;11.40;10.30;;;;;;;;;;5055389;28;20499;-79
2021/07/22 11:54:00;;;;;;;11.13;9.93;;;;;;;;;;5054750;28;20440;-78
2021/07/22 11:56:30;;;;;;;15.63;9.30;;;;;;;;;;5054882;28;20478;-78
2021/07/22 11:58:56;;;;;;;11.47;10.27;;;;;;;;;;5055253;28;20482;-77
2021/07/22 12:01:22;;;;;;;12.60;9.83;;;;;;;;;;5055114;28;20407;-77
2021/07/22 12:03:49;;;;;;;16.03;10.60;;;;;;;;;;5053103;28;20785;-77
2021/07/22 12:06:21;;;;;;;18.67;11.27;;;;;;;;;;5054954;28;20455;-78
2021/07/22 12:08:59;;;;;;;10.30;9.30;;;;;;;;;;5055339;28;20408;-74
2021/07/22 12:11:25;;;;;;;10.93;9.87;;;;;;;;;;5055003;28;20408;-74
2021/07/22 12:13:52;;;;;;;11.13;10.03;;;;;;;;;;5054077;28;20940;-74
2021/07/22 12:16:24;;;;;;;11.27;10.10;;;;;;;;;;5054051;28;20411;-74
2021/07/22 12:18:51;;;;;;;11.57;10.37;;;;;;;;;;5054799;28;20494;-74
2021/07/22 12:21:21;;;;;;;15.40;9.53;;;;;;;;;;5054441;28;20550;-75
2021/07/22 12:23:47;;;;;;;13.10;10.20;;;;;;;;;;5054048;28;20494;-74
2021/07/22 12:26:16;;;;;;;13.40;10.60;;;;;;;;;;5054118;28;20436;-74
2021/07/22 12:28:43;;;;;;;10.10;9.00;;;;;;;;;;5054395;28;20414;-74
2021/07/22 12:31:20;;;;;;;10.13;8.67;;;;;;;;;;5054704;28;20439;-73
2021/07/22 12:33:59;;;;;;;11.40;10.20;;;;;;;;;;5053884;28;20491;-75
2021/07/22 12:36:26;;;;;;;11.30;9.30;;;;;;;;;;5053901;28;20418;-74
2021/07/22 12:39:10;;;;;;;12.37;9.67;;;;;;;;;;5053568;28;20470;-77
2021/07/22 12:41:36;;;;;;;12.30;10.20;;;;;;;;;;5054064;28;20398;-77
2021/07/22 12:44:02;;;;;;;11.10;9.93;;;;;;;;;;5053607;28;20408;-76
2021/07/22 12:46:32;;;;;;;10.60;9.53;;;;;;;;;;5053569;28;20405;-76
2021/07/22 12:48:58;;;;;;;10.30;9.17;;;;;;;;;;5053642;28;20412;-75
2021/07/22 12:51:24;;;;;;;10.73;9.80;;;;;;;;;;5052509;28;20920;-76
2021/07/22 12:53:51;;;;;;;13.10;10.17;;;;;;;;;;5053279;28;20440;-74
2021/07/22 12:56:17;;;;;;;11.87;10.63;;;;;;;;;;5053762;28;20483;-77
2021/07/22 12:58:44;;;;;;;13.33;10.43;;;;;;;;;;5053407;28;20837;-75
2021/07/22 13:01:11;;;;;;;12.00;10.73;;;;;;;;;;5053122;28;20407;-74
2021/07/22 13:03:44;;;;;;;14.20;10.17;;;;;;;;;;5052050;28;20421;-76
2021/07/22 13:06:11;;;;;;;11.40;10.30;;;;;;;;;;5053466;28;20443;-76
2021/07/22 13:08:37;;;;;;;12.13;9.50;;;;;;;;;;5053412;28;20466;-74
2021/07/22 13:11:04;;;;;;;12.27;10.70;;;;;;;;;;5053439;28;20426;-73
2021/07/22 13:13:31;;;;;;;14.43;10.40;;;;;;;;;;5053173;28;20902;-75
2021/07/22 13:15:57;;;;;;;12.03;9.90;;;;;;;;;;5052328;28;20929;-76
2021/07/22 13:18:23;;;;;;;12.00;8.40;;;;;;;;;;5053313;28;20528;-78
2021/07/22 13:20:50;;;;;;;14.20;10.37;;;;;;;;;;5053564;28;20413;-78
2021/07/22 13:23:16;;;;;;;11.77;10.37;;;;;;;;;;5053465;28;20412;-79
2021/07/22 13:25:42;;;;;;;13.13;11.03;;;;;;;;;;5052982;28;20999;-75
2021/07/22 13:28:08;;;;;;;13.40;10.67;;;;;;;;;;5053421;28;20734;-75
2021/07/22 13:30:34;;;;;;;12.93;9.90;;;;;;;;;;5053197;28;20416;-76
2021/07/22 13:33:00;;;;;;;17.50;10.53;;;;;;;;;;5053084;28;20925;-77
2021/07/22 13:35:35;;;;;;;13.00;10.43;;;;;;;;;;5053222;28;20439;-80
2021/07/22 13:38:02;;;;;;;12.50;11.20;;;;;;;;;;5051885;28;20459;-81
2021/07/22 13:40:28;;;;;;;13.27;11.83;;;;;;;;;;5051752;28;20416;-77
2021/07/22 13:42:54;;;;;;;12.30;11.00;;;;;;;;;;5052760;28;20408;-79
2021/07/22 13:45:20;;;;;;;12.77;10.83;;;;;;;;;;5053023;28;20490;-80
2021/07/22 13:47:46;;;;;;;12.10;10.80;;;;;;;;;;5053206;28;20901;-81
2021/07/22 13:50:12;;;;;;;11.57;10.50;;;;;;;;;;5052367;28;20471;-77
2021/07/22 13:52:39;;;;;;;14.33;11.20;;;;;;;;;;5053085;28;20424;-79
2021/07/22 13:55:06;;;;;;;15.70;12.90;;;;;;;;;;5052805;28;20442;-79
2021/07/22 13:57:32;;;;;;;14.10;12.10;;;;;;;;;;5052996;28;20456;-79
2021/07/22 13:59:58;;;;;;;20.43;12.57;;;;;;;;;;5053289;28;20773;-78
2021/07/22 14:02:24;;;;;;;15.23;11.70;;;;;;;;;;5053243;28;20400;-80
2021/07/22 14:04:50;;;;;;;15.50;11.47;;;;;;;;;;5052254;28;20447;-78
2021/07/22 14:07:16;;;;;;;13.00;11.80;;;;;;;;;;5052540;28;20779;-79
2021/07/22 14:09:42;;;;;;;13.50;11.33;;;;;;;;;;5053046;28;20412;-80
2021/07/22 14:12:08;;;;;;;19.00;12.50;;;;;;;;;;5053019;28;20400;-77
2021/07/22 14:14:34;;;;;;;18.40;14.20;;;;;;;;;;5055671;28;20611;-80
2021/07/22 14:17:02;;;;;;;16.30;12.50;;;;;;;;;;5056835;28;20944;-81